createdAt,value
2023-03-02T00:00:00.107Z,1.77
2023-03-02T00:01:00.145Z,1.79
2023-03-02T00:02:00.169Z,1.81
2023-03-02T00:03:00.233Z,1.85
2023-03-02T00:04:00.130Z,1.89
2023-03-02T00:05:00.056Z,1.92
2023-03-02T00:06:00.043Z,1.93
2023-03-02T00:07:00.169Z,1.93
2023-03-02T00:08:00.014Z,1.93
2023-03-02T00:09:00.042Z,1.95
2023-03-02T00:10:00.181Z,2.08
2023-03-02T00:11:00.129Z,2.12
2023-03-02T00:11:59.981Z,2.15
2023-03-02T00:12:59.982Z,2.18
2023-03-02T00:13:59.973Z,2.25
2023-03-02T00:14:59.976Z,2.27
2023-03-02T00:16:00.295Z,2.32
2023-03-02T00:16:59.902Z,2.40
2023-03-02T00:17:59.903Z,2.44
2023-03-02T00:18:59.879Z,2.43
2023-03-02T00:19:59.865Z,2.41
2023-03-02T00:20:59.919Z,2.41
2023-03-02T00:21:59.852Z,2.40
2023-03-02T00:22:59.841Z,2.45
2023-03-02T00:23:59.837Z,2.48
2023-03-02T00:24:59.825Z,2.48
2023-03-02T00:25:59.796Z,2.45
2023-03-02T00:26:59.780Z,2.44
2023-03-02T00:27:59.757Z,2.43
2023-03-02T00:28:59.766Z,2.37
2023-03-02T00:29:59.737Z,2.33
2023-03-02T00:30:59.815Z,2.30
2023-03-02T00:31:59.740Z,2.26
2023-03-02T00:32:59.710Z,2.26
2023-03-02T00:33:59.683Z,2.27
2023-03-02T00:34:59.683Z,2.27
2023-03-02T00:35:59.712Z,2.26
2023-03-02T00:36:59.649Z,2.32
2023-03-02T00:37:59.634Z,2.37
2023-03-02T00:39:00.034Z,2.41
2023-03-02T00:39:59.600Z,2.48
2023-03-02T00:40:59.646Z,2.53
2023-03-02T00:41:59.578Z,2.53
2023-03-02T00:42:59.612Z,2.58
2023-03-02T00:43:59.641Z,2.58
2023-03-02T00:44:59.558Z,2.62
2023-03-02T00:45:59.549Z,2.65
2023-03-02T00:46:59.629Z,2.68
2023-03-02T00:47:59.522Z,2.66
2023-03-02T00:48:59.547Z,2.66
2023-03-02T00:49:59.486Z,2.65
2023-03-02T00:50:59.497Z,2.63
2023-03-02T00:51:59.469Z,2.63
2023-03-02T00:52:59.467Z,2.56
2023-03-02T00:53:59.526Z,2.51
2023-03-02T00:54:59.454Z,2.48
2023-03-02T00:55:59.433Z,2.48
2023-03-02T00:56:59.414Z,2.44
2023-03-02T00:57:59.392Z,2.41
2023-03-02T00:58:59.374Z,2.43
2023-03-02T00:59:59.362Z,2.47
2023-03-02T01:00:59.422Z,2.48
2023-03-02T01:01:59.477Z,2.50
2023-03-02T01:02:59.500Z,2.47
2023-03-02T01:03:59.357Z,2.45
2023-03-02T01:04:59.337Z,2.47
2023-03-02T01:05:59.313Z,2.47
2023-03-02T01:06:59.369Z,2.50
2023-03-02T01:07:59.372Z,2.53
2023-03-02T01:08:59.570Z,2.58
2023-03-02T01:09:59.252Z,2.59
2023-03-02T01:10:59.372Z,2.58
2023-03-02T01:11:59.233Z,2.56
2023-03-02T01:12:59.237Z,2.56
2023-03-02T01:13:59.227Z,2.58
2023-03-02T01:14:59.219Z,2.56
2023-03-02T01:15:59.194Z,2.55
2023-03-02T01:16:59.195Z,2.51
2023-03-02T01:17:59.158Z,2.50
2023-03-02T01:19:00.128Z,2.50
2023-03-02T01:19:59.124Z,2.47
2023-03-02T01:20:59.184Z,2.50
2023-03-02T01:21:59.105Z,2.48
2023-03-02T01:22:59.099Z,2.45
2023-03-02T01:23:59.086Z,2.45
2023-03-02T01:24:59.070Z,2.43
2023-03-02T01:25:59.053Z,2.40
2023-03-02T01:28:08.747Z,2.30
2023-03-02T01:29:08.741Z,2.25
2023-03-02T01:30:08.728Z,2.20
2023-03-02T01:31:08.755Z,2.15
2023-03-02T01:32:08.715Z,2.09
2023-03-02T01:33:08.677Z,2.04
2023-03-02T01:34:09.641Z,2.01
2023-03-02T01:35:08.645Z,1.93
2023-03-02T01:36:08.635Z,1.88
2023-03-02T01:37:08.628Z,1.83
2023-03-02T01:38:08.623Z,1.79
2023-03-02T01:39:08.633Z,1.74
2023-03-02T01:40:08.595Z,1.74
2023-03-02T01:41:08.592Z,1.74
2023-03-02T01:42:08.562Z,1.71
2023-03-02T01:43:08.542Z,1.68
2023-03-02T01:44:08.551Z,1.67
2023-03-02T01:45:08.519Z,1.64
2023-03-02T01:46:08.592Z,1.63
2023-03-02T01:47:08.499Z,1.61
2023-03-02T01:48:08.499Z,1.56
2023-03-02T01:49:08.479Z,1.53
2023-03-02T01:50:08.476Z,1.52
2023-03-02T01:51:08.456Z,1.47
2023-03-02T01:52:08.438Z,1.46
2023-03-02T01:53:08.432Z,1.49
2023-03-02T01:54:08.418Z,1.47
2023-03-02T01:55:08.478Z,1.43
2023-03-02T01:56:08.407Z,1.46
2023-03-02T01:57:08.377Z,1.46
2023-03-02T01:58:08.448Z,1.42
2023-03-02T01:59:08.343Z,1.38
2023-03-02T02:00:08.343Z,1.34
2023-03-02T02:01:08.372Z,1.34
2023-03-02T02:02:08.391Z,1.29
2023-03-02T02:03:08.294Z,1.29
2023-03-02T02:04:08.341Z,1.31
2023-03-02T02:05:08.263Z,1.29
2023-03-02T02:06:08.265Z,1.29
2023-03-02T02:07:08.255Z,1.29
2023-03-02T02:08:08.249Z,1.34
2023-03-02T02:09:08.225Z,1.34
2023-03-02T02:10:08.222Z,1.35
2023-03-02T02:11:08.200Z,1.36
2023-03-02T02:12:08.210Z,1.34
2023-03-02T02:13:08.171Z,1.31
2023-03-02T02:14:08.198Z,1.28
2023-03-02T02:15:08.197Z,1.24
2023-03-02T02:16:08.163Z,1.20
2023-03-02T02:17:08.128Z,1.18
2023-03-02T02:18:08.137Z,1.14
2023-03-02T02:19:08.095Z,1.10
2023-03-02T02:20:08.106Z,1.08
2023-03-02T02:21:08.078Z,1.07
2023-03-02T02:22:08.091Z,1.11
2023-03-02T02:23:08.048Z,1.10
2023-03-02T02:24:08.053Z,1.14
2023-03-02T02:25:08.024Z,1.20
2023-03-02T02:26:08.015Z,1.21
2023-03-02T02:27:08.005Z,1.25
2023-03-02T02:28:08.025Z,1.29
2023-03-02T02:29:08.042Z,1.31
2023-03-02T02:30:07.977Z,1.31
2023-03-02T02:31:07.955Z,1.32
2023-03-02T02:32:08.203Z,1.29
2023-03-02T02:33:07.935Z,1.28
2023-03-02T02:34:07.913Z,1.34
2023-03-02T02:35:07.899Z,1.39
2023-03-02T02:36:07.971Z,1.44
2023-03-02T02:37:07.982Z,1.50
2023-03-02T02:38:07.861Z,1.56
2023-03-02T02:39:07.846Z,1.64
2023-03-02T02:40:07.845Z,1.65
2023-03-02T02:41:07.821Z,1.61
2023-03-02T02:42:07.831Z,1.56
2023-03-02T02:43:07.813Z,1.60
2023-03-02T02:44:07.800Z,1.56
2023-03-02T02:45:07.791Z,1.53
2023-03-02T02:46:07.807Z,1.52
2023-03-02T02:47:07.764Z,1.50
2023-03-02T02:48:07.740Z,1.47
2023-03-02T02:49:07.720Z,1.46
2023-03-02T02:50:07.712Z,1.43
2023-03-02T02:51:07.705Z,1.39
2023-03-02T02:52:07.688Z,1.36
2023-03-02T02:53:07.677Z,1.35
2023-03-02T02:54:08.116Z,1.31
2023-03-02T02:55:07.657Z,1.28
2023-03-02T02:56:07.651Z,1.29
2023-03-02T02:57:07.908Z,1.25
2023-03-02T02:58:07.635Z,1.21
2023-03-02T02:59:07.615Z,1.25
2023-03-02T03:00:07.614Z,1.21
2023-03-02T03:01:07.614Z,1.17
2023-03-02T03:02:07.611Z,1.18
2023-03-02T03:03:07.552Z,1.16
2023-03-02T03:04:07.618Z,1.18
2023-03-02T03:05:07.539Z,1.26
2023-03-02T03:06:07.530Z,1.29
2023-03-02T03:07:07.512Z,1.31
2023-03-02T03:08:07.507Z,1.38
2023-03-02T03:09:07.505Z,1.38
2023-03-02T03:10:07.472Z,1.39
2023-03-02T03:11:07.458Z,1.39
2023-03-02T03:12:07.462Z,1.42
2023-03-02T03:13:07.435Z,1.43
2023-03-02T03:14:07.572Z,1.39
2023-03-02T03:15:07.409Z,1.39
2023-03-02T03:16:07.410Z,1.39
2023-03-02T03:17:07.434Z,1.35
2023-03-02T03:18:07.428Z,1.31
2023-03-02T03:19:07.359Z,1.31
2023-03-02T03:20:07.369Z,1.26
2023-03-02T03:21:07.367Z,1.20
2023-03-02T03:22:07.330Z,1.17
2023-03-02T03:23:07.304Z,1.17
2023-03-02T03:24:07.294Z,1.18
2023-03-02T03:25:07.283Z,1.20
2023-03-02T03:26:07.272Z,1.25
2023-03-02T03:27:07.281Z,1.29
2023-03-02T03:28:07.253Z,1.31
2023-03-02T03:29:07.227Z,1.28
2023-03-02T03:30:07.221Z,1.25
2023-03-02T03:31:07.353Z,1.24
2023-03-02T03:32:07.264Z,1.17
2023-03-02T03:33:07.191Z,1.18
2023-03-02T03:34:07.369Z,1.10
2023-03-02T03:35:07.160Z,1.07
2023-03-02T03:36:07.174Z,1.06
2023-03-02T03:37:07.145Z,1.06
2023-03-02T03:38:07.130Z,1.07
2023-03-02T03:39:07.099Z,1.04
2023-03-02T03:40:07.104Z,0.98
2023-03-02T03:41:07.074Z,1.02
2023-03-02T03:42:07.083Z,1.08
2023-03-02T03:43:07.049Z,1.17
2023-03-02T03:44:07.049Z,1.18
2023-03-02T03:45:07.379Z,1.20
2023-03-02T03:46:07.096Z,1.24
2023-03-02T03:47:07.008Z,1.25
2023-03-02T03:48:07.015Z,1.28
2023-03-02T03:49:06.983Z,1.28
2023-03-02T03:50:06.974Z,1.28
2023-03-02T03:51:07.059Z,1.31
2023-03-02T03:52:06.960Z,1.32
2023-03-02T03:53:06.951Z,1.34
2023-03-02T03:54:06.929Z,1.34
2023-03-02T03:55:06.920Z,1.32
2023-03-02T03:56:06.899Z,1.36
2023-03-02T03:57:06.915Z,1.35
2023-03-02T03:58:06.881Z,1.36
2023-03-02T03:59:06.851Z,1.38
2023-03-02T04:00:06.851Z,1.42
2023-03-02T04:01:06.927Z,1.39
2023-03-02T04:02:06.825Z,1.38
2023-03-02T04:03:06.814Z,1.39
2023-03-02T04:04:06.807Z,1.34
2023-03-02T04:05:06.791Z,1.32
2023-03-02T04:06:06.792Z,1.34
2023-03-02T04:07:06.768Z,1.34
2023-03-02T04:08:06.770Z,1.29
2023-03-02T04:09:06.756Z,1.29
2023-03-02T04:10:06.731Z,1.25
2023-03-02T04:11:06.711Z,1.21
2023-03-02T04:12:06.706Z,1.21
2023-03-02T04:13:06.674Z,1.24
2023-03-02T04:14:06.682Z,1.25
2023-03-02T04:15:06.658Z,1.24
2023-03-02T04:16:06.680Z,1.24
2023-03-02T04:17:06.718Z,1.24
2023-03-02T04:18:06.636Z,1.20
2023-03-02T04:19:06.598Z,1.16
2023-03-02T04:20:06.593Z,1.13
2023-03-02T04:21:06.578Z,1.14
2023-03-02T04:22:06.603Z,1.16
2023-03-02T04:23:06.579Z,1.17
2023-03-02T04:24:06.552Z,1.17
2023-03-02T04:25:06.538Z,1.18
2023-03-02T04:26:06.536Z,1.20
2023-03-02T04:27:06.533Z,1.18
2023-03-02T04:28:06.755Z,1.21
2023-03-02T04:29:06.509Z,1.21
2023-03-02T04:30:06.485Z,1.20
2023-03-02T04:31:06.497Z,1.21
2023-03-02T04:32:06.499Z,1.20
2023-03-02T04:33:06.452Z,1.18
2023-03-02T04:34:06.454Z,1.18
2023-03-02T04:35:06.420Z,1.16
2023-03-02T04:36:06.420Z,1.16
2023-03-02T04:37:06.400Z,1.16
2023-03-02T04:38:06.391Z,1.18
2023-03-02T04:39:06.401Z,1.17
2023-03-02T04:40:06.768Z,1.24
2023-03-02T04:41:06.351Z,1.25
2023-03-02T04:42:06.372Z,1.25
2023-03-02T04:43:06.359Z,1.29
2023-03-02T04:44:06.314Z,1.32
2023-03-02T04:45:06.292Z,1.31
2023-03-02T04:46:06.355Z,1.31
2023-03-02T04:47:06.281Z,1.31
2023-03-02T04:48:06.280Z,1.32
2023-03-02T04:49:06.265Z,1.32
2023-03-02T04:50:06.241Z,1.31
2023-03-02T04:51:06.238Z,1.31
2023-03-02T04:52:06.232Z,1.31
2023-03-02T04:53:06.212Z,1.31
2023-03-02T04:54:06.195Z,1.31
2023-03-02T04:55:06.230Z,1.31
2023-03-02T04:56:06.172Z,1.29
2023-03-02T04:57:06.161Z,1.31
2023-03-02T04:58:06.143Z,1.29
2023-03-02T04:59:06.119Z,1.29
2023-03-02T05:00:06.160Z,1.29
2023-03-02T05:01:06.166Z,1.29
2023-03-02T05:02:06.325Z,1.29
2023-03-02T05:03:06.085Z,1.26
2023-03-02T05:04:06.142Z,1.28
2023-03-02T05:05:06.072Z,1.26
2023-03-02T05:06:06.089Z,1.26
2023-03-02T05:07:06.046Z,1.26
2023-03-02T05:08:06.030Z,1.24
2023-03-02T05:09:06.008Z,1.21
2023-03-02T05:10:06.014Z,1.20
2023-03-02T05:11:05.986Z,1.20
2023-03-02T05:12:05.990Z,1.18
2023-03-02T05:13:05.986Z,1.16
2023-03-02T05:14:05.954Z,1.11
2023-03-02T05:15:05.972Z,1.10
2023-03-02T05:16:05.919Z,1.08
2023-03-02T05:17:05.913Z,1.07
2023-03-02T05:18:05.958Z,1.04
2023-03-02T05:19:05.889Z,1.02
2023-03-02T05:20:05.876Z,0.99
2023-03-02T05:21:05.852Z,0.95
2023-03-02T05:22:05.848Z,0.95
2023-03-02T05:23:05.837Z,0.93
2023-03-02T05:24:05.830Z,0.92
2023-03-02T05:25:05.808Z,0.92
2023-03-02T05:26:05.789Z,0.90
2023-03-02T05:27:05.770Z,0.92
2023-03-02T05:28:05.950Z,0.92
2023-03-02T05:29:05.754Z,0.92
2023-03-02T05:30:05.760Z,0.89
2023-03-02T05:31:05.754Z,0.90
2023-03-02T05:32:05.812Z,0.89
2023-03-02T05:33:05.715Z,0.89
2023-03-02T05:34:05.692Z,0.88
2023-03-02T05:35:05.676Z,0.89
2023-03-02T05:36:05.719Z,0.88
2023-03-02T05:37:05.660Z,0.86
2023-03-02T05:38:05.699Z,0.84
2023-03-02T05:39:05.632Z,0.82
2023-03-02T05:40:05.627Z,0.82
2023-03-02T05:41:05.665Z,0.81
2023-03-02T05:42:05.633Z,0.82
2023-03-02T05:43:05.695Z,0.81
2023-03-02T05:44:06.057Z,0.81
2023-03-02T05:45:05.596Z,0.81
2023-03-02T05:46:05.586Z,0.80
2023-03-02T05:47:05.734Z,0.77
2023-03-02T05:48:05.755Z,0.78
2023-03-02T05:49:05.576Z,0.78
2023-03-02T05:50:05.512Z,0.77
2023-03-02T05:51:05.483Z,0.78
2023-03-02T05:52:05.634Z,0.78
2023-03-02T05:53:05.450Z,0.77
2023-03-02T05:54:05.497Z,0.74
2023-03-02T05:55:05.432Z,0.77
2023-03-02T05:56:05.426Z,0.74
2023-03-02T05:57:05.399Z,0.74
2023-03-02T05:58:05.408Z,0.74
2023-03-02T05:59:05.449Z,0.72
2023-03-02T06:00:05.376Z,0.75
2023-03-02T06:01:05.367Z,0.75
2023-03-02T06:02:05.393Z,0.75
2023-03-02T06:03:05.463Z,0.74
2023-03-02T06:04:05.305Z,0.71
2023-03-02T06:05:05.309Z,0.71
2023-03-02T06:06:05.282Z,0.74
2023-03-02T06:07:05.307Z,0.72
2023-03-02T06:08:05.291Z,0.72
2023-03-02T06:09:05.253Z,0.74
2023-03-02T06:10:05.243Z,0.75
2023-03-02T06:11:05.220Z,0.74
2023-03-02T06:12:05.308Z,0.74
2023-03-02T06:13:05.269Z,0.77
2023-03-02T06:14:05.182Z,0.75
2023-03-02T06:15:05.192Z,0.75
2023-03-02T06:16:05.214Z,0.77
2023-03-02T06:17:05.184Z,0.78
2023-03-02T06:18:05.229Z,0.78
2023-03-02T06:19:05.134Z,0.88
2023-03-02T06:20:05.112Z,0.95
2023-03-02T06:21:05.118Z,0.96
2023-03-02T06:22:05.088Z,0.96
2023-03-02T06:23:05.094Z,0.92
2023-03-02T06:24:05.059Z,0.90
2023-03-02T06:25:05.044Z,0.93
2023-03-02T06:26:05.028Z,0.92
2023-03-02T06:27:05.045Z,0.90
2023-03-02T06:28:05.264Z,0.90
2023-03-02T06:29:05.471Z,0.89
2023-03-02T06:30:04.990Z,0.88
2023-03-02T06:31:04.982Z,0.88
2023-03-02T06:32:05.110Z,1.10
2023-03-02T06:33:04.965Z,1.43
2023-03-02T06:34:04.955Z,1.31
2023-03-02T06:35:05.008Z,1.16
2023-03-02T06:36:05.067Z,1.04
2023-03-02T06:37:04.918Z,0.99
2023-03-02T06:38:04.911Z,1.43
2023-03-02T06:39:04.886Z,1.36
2023-03-02T06:40:04.863Z,1.20
2023-03-02T06:41:04.855Z,1.43
2023-03-02T06:42:04.844Z,1.34
2023-03-02T06:43:04.858Z,1.21
2023-03-02T06:44:04.813Z,1.39
2023-03-02T06:45:04.836Z,1.42
2023-03-02T06:46:04.851Z,1.38
2023-03-02T06:47:04.782Z,1.43
2023-03-02T06:48:04.795Z,1.31
2023-03-02T06:49:04.762Z,1.20
2023-03-02T06:50:04.741Z,1.35
2023-03-02T06:51:04.736Z,1.53
2023-03-02T06:52:04.715Z,1.88
2023-03-02T06:53:04.706Z,1.86
2023-03-02T06:54:04.825Z,2.00
2023-03-02T06:55:04.692Z,2.04
2023-03-02T06:56:04.678Z,1.89
2023-03-02T06:57:04.669Z,1.67
2023-03-02T06:58:04.663Z,1.63
2023-03-02T06:59:04.646Z,1.60
2023-03-02T07:00:04.710Z,1.53
2023-03-02T07:01:04.750Z,1.50
2023-03-02T07:02:04.589Z,1.36
2023-03-02T07:03:04.598Z,1.29
2023-03-02T07:04:04.636Z,1.24
2023-03-02T07:05:04.579Z,1.20
2023-03-02T07:06:04.561Z,1.13
2023-03-02T07:07:05.416Z,1.08
2023-03-02T07:08:04.612Z,1.06
2023-03-02T07:09:04.577Z,1.00
2023-03-02T07:10:04.499Z,0.95
2023-03-02T07:11:04.481Z,0.92
2023-03-02T07:12:04.484Z,0.80
2023-03-02T07:13:04.474Z,0.75
2023-03-02T07:14:04.442Z,0.71
2023-03-02T07:15:04.430Z,0.75
2023-03-02T07:16:04.441Z,0.77
2023-03-02T07:17:04.531Z,0.72
2023-03-02T07:18:04.427Z,0.68
2023-03-02T07:19:04.387Z,0.68
2023-03-02T07:20:04.429Z,0.67
2023-03-02T07:21:04.365Z,0.62
2023-03-02T07:22:04.347Z,0.53
2023-03-02T07:23:04.366Z,0.45
2023-03-02T07:24:04.319Z,0.41
2023-03-02T07:25:04.324Z,0.43
2023-03-02T07:26:04.300Z,0.45
2023-03-02T07:27:04.303Z,0.45
2023-03-02T07:28:11.316Z,0.44
2023-03-02T07:29:04.267Z,0.38
2023-03-02T07:30:04.245Z,0.35
2023-03-02T07:31:07.014Z,0.33
2023-03-02T07:32:04.256Z,0.28
2023-03-02T07:33:04.208Z,0.30
2023-03-02T07:34:04.195Z,0.33
2023-03-02T07:35:04.190Z,0.37
2023-03-02T07:36:04.204Z,0.40
2023-03-02T07:37:05.203Z,0.44
2023-03-02T07:38:04.178Z,0.51
2023-03-02T07:39:04.190Z,0.52
2023-03-02T07:40:04.133Z,0.48
2023-03-02T07:41:04.114Z,0.35
2023-03-02T07:42:04.094Z,0.31
2023-03-02T07:43:04.094Z,0.34
2023-03-02T07:44:04.095Z,0.40
2023-03-02T07:45:04.077Z,0.43
2023-03-02T07:46:04.122Z,0.44
2023-03-02T07:47:04.091Z,0.45
2023-03-02T07:48:04.048Z,0.41
2023-03-02T07:49:04.028Z,0.41
2023-03-02T07:50:04.033Z,0.41
2023-03-02T07:51:04.032Z,0.44
2023-03-02T07:52:03.976Z,0.45
2023-03-02T07:53:04.000Z,0.40
2023-03-02T07:54:04.700Z,0.44
2023-03-02T07:55:03.974Z,0.48
2023-03-02T07:56:04.008Z,0.53
2023-03-02T07:57:04.672Z,0.51
2023-03-02T07:58:03.959Z,0.45
2023-03-02T07:59:03.929Z,0.45
2023-03-02T08:00:03.892Z,0.44
2023-03-02T08:01:03.872Z,0.48
2023-03-02T08:02:03.918Z,0.44
2023-03-02T08:03:03.992Z,0.48
2023-03-02T08:04:03.879Z,0.44
2023-03-02T08:05:03.847Z,0.48
2023-03-02T08:06:03.814Z,0.49
2023-03-02T08:07:03.807Z,0.49
2023-03-02T08:08:03.783Z,0.40
2023-03-02T08:09:03.772Z,0.40
2023-03-02T08:10:03.751Z,0.43
2023-03-02T08:11:03.762Z,0.35
2023-03-02T08:12:03.745Z,0.20
2023-03-02T08:13:03.728Z,0.13
2023-03-02T08:14:03.703Z,0.13
2023-03-02T08:15:05.020Z,0.10
2023-03-02T08:16:03.758Z,0.12
2023-03-02T08:17:03.696Z,0.08
2023-03-02T08:18:03.653Z,0.15
2023-03-02T08:19:03.646Z,0.16
2023-03-02T08:20:03.651Z,0.23
2023-03-02T08:21:03.675Z,0.34
2023-03-02T08:22:03.618Z,0.45
2023-03-02T08:23:03.603Z,0.48
2023-03-02T08:24:03.652Z,0.40
2023-03-02T08:25:03.590Z,0.37
2023-03-02T08:26:03.574Z,0.31
2023-03-02T08:27:03.639Z,0.28
2023-03-02T08:28:03.532Z,0.30
2023-03-02T08:29:03.530Z,0.34
2023-03-02T08:30:03.536Z,0.40
2023-03-02T08:31:03.662Z,0.53
2023-03-02T08:32:03.586Z,0.68
2023-03-02T08:33:06.923Z,0.80
2023-03-02T08:34:03.494Z,0.98
2023-03-02T08:35:03.468Z,1.07
2023-03-02T08:36:03.492Z,1.02
2023-03-02T08:37:03.455Z,1.08
2023-03-02T08:38:03.436Z,1.11
2023-03-02T08:39:03.507Z,1.16
2023-03-02T08:40:03.380Z,1.14
2023-03-02T08:41:03.406Z,1.14
2023-03-02T08:42:03.378Z,1.04
2023-03-02T08:43:03.365Z,0.99
2023-03-02T08:44:03.348Z,0.96
2023-03-02T08:45:03.329Z,0.92
2023-03-02T08:46:03.461Z,0.84
2023-03-02T08:47:03.459Z,0.71
2023-03-02T08:48:03.301Z,0.64
2023-03-02T08:49:03.277Z,0.64
2023-03-02T08:50:03.299Z,0.72
2023-03-02T08:51:03.274Z,0.80
2023-03-02T08:52:03.256Z,0.88
2023-03-02T08:53:03.252Z,0.99
2023-03-02T08:54:03.210Z,1.10
2023-03-02T08:55:04.129Z,1.00
2023-03-02T08:56:03.182Z,1.02
2023-03-02T08:57:03.204Z,1.10
2023-03-02T08:58:03.163Z,1.14
2023-03-02T08:59:03.202Z,1.24
2023-03-02T09:00:03.172Z,1.16
2023-03-02T09:01:03.211Z,1.06
2023-03-02T09:02:03.183Z,0.95
2023-03-02T09:03:03.100Z,0.93
2023-03-02T09:04:03.159Z,0.96
2023-03-02T09:05:03.092Z,1.06
2023-03-02T09:06:03.163Z,1.13
2023-03-02T09:07:03.057Z,1.20
2023-03-02T09:08:03.028Z,1.34
2023-03-02T09:09:03.044Z,1.39
2023-03-02T09:10:03.019Z,1.39
2023-03-02T09:11:03.010Z,1.39
2023-03-02T09:12:02.981Z,1.32
2023-03-02T09:13:02.984Z,1.21
2023-03-02T09:14:02.952Z,1.20
2023-03-02T09:15:02.980Z,1.21
2023-03-02T09:16:03.199Z,1.26
2023-03-02T09:17:02.928Z,1.36
2023-03-02T09:18:02.927Z,1.47
2023-03-02T09:19:02.894Z,1.61
2023-03-02T09:20:02.878Z,1.70
2023-03-02T09:21:02.867Z,1.81
2023-03-02T09:22:02.869Z,1.89
2023-03-02T09:23:02.867Z,1.95
2023-03-02T09:24:02.830Z,2.01
2023-03-02T09:25:02.826Z,2.08
2023-03-02T09:26:02.840Z,2.08
2023-03-02T09:27:02.815Z,2.04
2023-03-02T09:28:02.979Z,2.12
2023-03-02T09:29:02.805Z,2.11
2023-03-02T09:30:03.746Z,2.04
2023-03-02T09:31:02.845Z,1.77
2023-03-02T09:32:03.835Z,1.64
2023-03-02T09:33:02.940Z,1.65
2023-03-02T09:34:03.112Z,1.67
2023-03-02T09:35:02.711Z,1.74
2023-03-02T09:36:02.688Z,1.82
2023-03-02T09:37:02.688Z,1.79
2023-03-02T09:38:02.700Z,1.83
2023-03-02T09:39:02.649Z,1.92
2023-03-02T09:40:03.258Z,1.79
2023-03-02T09:41:02.628Z,1.81
2023-03-02T09:42:02.643Z,1.85
2023-03-02T09:43:02.640Z,1.81
2023-03-02T09:44:03.178Z,1.82
2023-03-02T09:45:02.603Z,1.88
2023-03-02T09:46:02.564Z,1.95
2023-03-02T09:47:02.545Z,2.11
2023-03-02T09:48:02.570Z,2.32
2023-03-02T09:49:03.292Z,2.40
2023-03-02T09:50:02.556Z,2.45
2023-03-02T09:51:02.536Z,2.45
2023-03-02T09:52:02.485Z,2.37
2023-03-02T09:53:02.495Z,2.30
2023-03-02T09:54:02.473Z,2.26
2023-03-02T09:55:02.480Z,2.29
2023-03-02T09:56:02.481Z,2.58
2023-03-02T09:57:02.445Z,2.71
2023-03-02T09:58:02.449Z,2.83
2023-03-02T09:59:02.415Z,2.90
2023-03-02T10:00:12.896Z,2.97
2023-03-02T10:01:03.388Z,3.01
2023-03-02T10:02:02.369Z,2.95
2023-03-02T10:03:11.540Z,2.80
2023-03-02T10:04:03.563Z,2.66
2023-03-02T10:05:02.353Z,2.47
2023-03-02T10:06:02.320Z,2.36
2023-03-02T10:07:02.371Z,2.23
2023-03-02T10:08:02.318Z,2.29
2023-03-02T10:09:02.317Z,2.38
2023-03-02T10:10:02.272Z,2.44
2023-03-02T10:11:02.266Z,2.56
2023-03-02T10:12:02.240Z,2.62
2023-03-02T10:13:02.227Z,2.61
2023-03-02T10:14:02.249Z,2.53
2023-03-02T10:15:02.206Z,2.40
2023-03-02T10:16:02.329Z,2.40
2023-03-02T10:17:03.638Z,2.38
2023-03-02T10:18:02.282Z,2.41
2023-03-02T10:19:04.401Z,2.55
2023-03-02T10:20:02.244Z,2.61
2023-03-02T10:21:02.165Z,2.62
2023-03-02T10:22:02.115Z,2.66
2023-03-02T10:23:02.104Z,2.76
2023-03-02T10:24:02.126Z,2.84
2023-03-02T10:25:02.081Z,2.97
2023-03-02T10:26:02.122Z,3.08
2023-03-02T10:27:02.088Z,3.15
2023-03-02T10:28:02.093Z,3.15
2023-03-02T10:29:02.023Z,3.16
2023-03-02T10:30:02.035Z,3.15
2023-03-02T10:31:04.826Z,3.16
2023-03-02T10:32:02.082Z,3.20
2023-03-02T10:33:01.986Z,3.23
2023-03-02T10:34:01.978Z,3.23
2023-03-02T10:35:01.950Z,3.05
2023-03-02T10:36:01.942Z,2.86
2023-03-02T10:37:01.922Z,2.74
2023-03-02T10:38:01.959Z,2.76
2023-03-02T10:39:01.891Z,2.80
2023-03-02T10:40:02.028Z,2.90
2023-03-02T10:41:01.890Z,3.01
2023-03-02T10:42:01.937Z,3.08
2023-03-02T10:43:01.858Z,3.17
2023-03-02T10:44:01.838Z,3.20
2023-03-02T10:45:01.806Z,3.26
2023-03-02T10:46:01.925Z,3.26
2023-03-02T10:47:01.795Z,3.25
2023-03-02T10:48:01.813Z,3.31
2023-03-02T10:49:01.772Z,3.34
2023-03-02T10:50:01.786Z,3.37
2023-03-02T10:51:01.747Z,3.37
2023-03-02T10:52:02.433Z,3.42
2023-03-02T10:53:04.831Z,3.46
2023-03-02T10:54:01.763Z,3.46
2023-03-02T10:55:01.747Z,3.35
2023-03-02T10:56:01.695Z,3.20
2023-03-02T10:57:01.671Z,3.19
2023-03-02T10:58:01.731Z,3.25
2023-03-02T10:59:01.671Z,3.28
2023-03-02T11:00:01.644Z,3.34
2023-03-02T11:01:01.669Z,3.42
2023-03-02T11:02:01.752Z,3.35
2023-03-02T11:03:01.597Z,3.19
2023-03-02T11:04:01.612Z,3.22
2023-03-02T11:05:01.619Z,3.25
2023-03-02T11:06:01.570Z,3.25
2023-03-02T11:07:01.561Z,3.30
2023-03-02T11:08:01.740Z,3.37
2023-03-02T11:09:01.528Z,3.42
2023-03-02T11:10:01.750Z,3.37
2023-03-02T11:11:01.793Z,3.25
2023-03-02T11:12:01.544Z,3.23
2023-03-02T11:13:01.472Z,3.16
2023-03-02T11:14:01.456Z,3.08
2023-03-02T11:15:01.459Z,3.07
2023-03-02T11:16:01.520Z,3.16
2023-03-02T11:17:03.124Z,3.19
2023-03-02T11:18:01.540Z,3.25
2023-03-02T11:19:01.408Z,3.31
2023-03-02T11:20:01.414Z,3.30
2023-03-02T11:21:01.404Z,3.28
2023-03-02T11:22:01.367Z,3.35
2023-03-02T11:23:01.444Z,3.42
2023-03-02T11:24:01.352Z,3.49
2023-03-02T11:25:01.316Z,3.41
2023-03-02T11:26:01.326Z,3.30
2023-03-02T11:27:01.291Z,3.31
2023-03-02T11:28:01.308Z,3.34
2023-03-02T11:29:01.274Z,3.42
2023-03-02T11:30:01.271Z,3.46
2023-03-02T11:31:01.251Z,3.50
2023-03-02T11:32:01.305Z,3.52
2023-03-02T11:33:01.303Z,3.59
2023-03-02T11:34:07.897Z,3.64
2023-03-02T11:35:02.190Z,3.62
2023-03-02T11:36:01.242Z,3.59
2023-03-02T11:37:01.164Z,3.64
2023-03-02T11:38:01.189Z,3.67
2023-03-02T11:39:01.142Z,3.70
2023-03-02T11:40:01.183Z,3.68
2023-03-02T11:41:01.116Z,3.71
2023-03-02T11:42:01.151Z,3.74
2023-03-02T11:43:01.144Z,3.77
2023-03-02T11:44:01.084Z,3.80
2023-03-02T11:45:01.069Z,3.82
2023-03-02T11:46:01.717Z,3.78
2023-03-02T11:47:01.118Z,3.81
2023-03-02T11:48:03.580Z,3.84
2023-03-02T11:49:01.011Z,3.93
2023-03-02T11:50:00.992Z,3.99
2023-03-02T11:51:00.984Z,4.00
2023-03-02T11:52:01.064Z,4.00
2023-03-02T11:53:00.967Z,4.10
2023-03-02T11:54:01.047Z,4.11
2023-03-02T11:55:00.968Z,4.07
2023-03-02T11:56:00.927Z,4.08
2023-03-02T11:57:00.916Z,4.11
2023-03-02T11:59:00.885Z,4.20
2023-03-02T12:00:00.885Z,4.26
2023-03-02T12:01:00.863Z,4.21
2023-03-02T12:02:01.000Z,4.18
2023-03-02T12:03:00.837Z,4.24
2023-03-02T12:04:01.234Z,4.26
2023-03-02T12:05:02.330Z,4.20
2023-03-02T12:06:00.993Z,4.13
2023-03-02T12:07:01.141Z,4.08
2023-03-02T12:08:00.826Z,4.00
2023-03-02T12:09:00.791Z,4.02
2023-03-02T12:10:00.750Z,4.08
2023-03-02T12:11:00.726Z,4.08
2023-03-02T12:12:00.740Z,4.04
2023-03-02T12:13:01.077Z,4.07
2023-03-02T12:14:00.722Z,4.10
2023-03-02T12:15:00.676Z,4.18
2023-03-02T12:16:01.593Z,4.25
2023-03-02T12:17:01.403Z,4.29
2023-03-02T12:18:01.662Z,4.34
2023-03-02T12:19:00.664Z,4.36
2023-03-02T12:20:01.632Z,4.42
2023-03-02T12:21:00.714Z,4.43
2023-03-02T12:22:00.656Z,4.51
2023-03-02T12:23:00.706Z,4.54
2023-03-02T12:24:00.614Z,4.57
2023-03-02T12:25:00.550Z,4.61
2023-03-02T12:26:00.652Z,4.61
2023-03-02T12:27:00.534Z,4.61
2023-03-02T12:28:00.547Z,4.61
2023-03-02T12:29:00.505Z,4.57
2023-03-02T12:30:00.498Z,4.62
2023-03-02T12:31:00.483Z,4.57
2023-03-02T12:32:00.714Z,4.44
2023-03-02T12:33:00.496Z,4.47
2023-03-02T12:34:00.450Z,4.49
2023-03-02T12:35:00.438Z,4.54
2023-03-02T12:36:00.418Z,4.57
2023-03-02T12:37:00.458Z,4.62
2023-03-02T12:38:00.484Z,4.64
2023-03-02T12:39:00.382Z,4.71
2023-03-02T12:40:02.695Z,4.79
2023-03-02T12:41:00.352Z,4.84
2023-03-02T12:42:00.481Z,4.80
2023-03-02T12:43:00.387Z,4.86
2023-03-02T12:44:00.402Z,4.87
2023-03-02T12:45:00.330Z,4.88
2023-03-02T12:46:00.465Z,4.87
2023-03-02T12:47:02.252Z,4.83
2023-03-02T12:48:00.720Z,4.83
2023-03-02T12:49:00.374Z,4.79
2023-03-02T12:50:00.259Z,4.83
2023-03-02T12:51:00.287Z,4.84
2023-03-02T12:52:00.419Z,4.86
2023-03-02T12:53:00.419Z,4.88
2023-03-02T12:54:00.197Z,4.91
2023-03-02T12:55:00.182Z,4.91
2023-03-02T12:56:00.221Z,4.90
2023-03-02T12:57:00.167Z,4.90
2023-03-02T12:58:00.180Z,4.88
2023-03-02T12:59:00.127Z,4.93
2023-03-02T13:00:00.163Z,4.99
2023-03-02T13:01:00.230Z,5.02
2023-03-02T13:02:00.114Z,5.06
2023-03-02T13:03:00.123Z,5.09
2023-03-02T13:04:00.207Z,5.12
2023-03-02T13:05:00.074Z,5.20
2023-03-02T13:06:00.073Z,5.26
2023-03-02T13:07:00.058Z,5.15
2023-03-02T13:08:00.083Z,5.04
2023-03-02T13:09:00.119Z,4.96
2023-03-02T13:10:00.075Z,5.01
2023-03-02T13:11:00.015Z,5.06
2023-03-02T13:11:59.984Z,5.11
2023-03-02T13:13:00.003Z,5.17
2023-03-02T13:14:00.119Z,5.20
2023-03-02T13:15:00.004Z,5.26
2023-03-02T13:15:59.955Z,5.29
2023-03-02T13:16:59.958Z,5.32
2023-03-02T13:17:59.966Z,5.35
2023-03-02T13:18:59.891Z,5.35
2023-03-02T13:19:59.960Z,5.41